Time;durP1;ratioP1;P1;durP2;ratioP2;P2;SDS_P1;SDS_P2;PMS_P1;PMS_P2;Temp;Humidity;BMP_temperature;BMP_pressure;BME280_temperature;BME280_humidity;BME280_pressure;Samples;Min_cycle;Max_cycle;Signal;HPM_P1;HPM_P2
2021/11/16 00:00:36;;;;;;;1.13;0.50;;;17.10;60.40;;;;;;5105879;28;20031;-37
2021/11/16 00:03:02;;;;;;;0.60;0.40;;;17.10;60.60;;;;;;5105766;28;20028;-37
2021/11/16 00:05:28;;;;;;;0.60;0.43;;;17.10;60.50;;;;;;5104072;28;20028;-37
2021/11/16 00:07:56;;;;;;;0.70;0.52;;;17.10;60.50;;;;;;5105744;28;20051;-38
2021/11/16 00:10:22;;;;;;;0.50;0.47;;;17.00;60.50;;;;;;5105333;28;20044;-37
2021/11/16 00:12:48;;;;;;;0.93;0.50;;;17.00;60.50;;;;;;5105636;28;20440;-37
2021/11/16 00:15:15;;;;;;;0.55;0.40;;;17.00;60.50;;;;;;5105401;28;20039;-37
2021/11/16 00:17:42;;;;;;;1.08;0.68;;;17.00;60.50;;;;;;5086053;28;20028;-37
2021/11/16 00:20:13;;;;;;;0.98;0.65;;;17.00;60.60;;;;;;5085051;28;20041;-37
2021/11/16 00:22:40;;;;;;;0.60;0.40;;;17.00;60.60;;;;;;5085251;28;20025;-37
2021/11/16 00:27:40;;;;;;;1.48;0.80;;;16.90;60.60;;;;;;5083647;28;20029;-37
2021/11/16 00:30:07;;;;;;;0.70;0.60;;;16.90;60.80;;;;;;5085080;28;20373;-37
2021/11/16 00:32:34;;;;;;;0.80;0.70;;;16.90;60.70;;;;;;5084630;28;20028;-37
2021/11/16 00:35:00;;;;;;;1.20;0.60;;;16.80;60.70;;;;;;5084707;28;20055;-37
2021/11/16 00:37:27;;;;;;;0.82;0.75;;;16.80;60.70;;;;;;5083491;28;20070;-37
2021/11/16 00:39:54;;;;;;;0.70;0.70;;;16.80;60.80;;;;;;5087307;28;20056;-37
2021/11/16 00:42:20;;;;;;;;;;;16.80;60.90;;;;;;5105524;28;20465;-37
2021/11/16 00:44:46;;;;;;;1.25;0.65;;;16.80;60.90;;;;;;5104824;28;19911;-37
2021/11/16 00:47:12;;;;;;;0.73;0.60;;;16.80;60.90;;;;;;5103497;28;20084;-37
2021/11/16 00:49:39;;;;;;;0.85;0.70;;;16.70;60.90;;;;;;5104686;28;20043;-37
2021/11/16 00:52:05;;;;;;;1.35;0.70;;;16.70;61.00;;;;;;5105006;28;20024;-37
2021/11/16 00:54:31;;;;;;;0.90;0.60;;;16.70;60.90;;;;;;5104882;28;20066;-38
2021/11/16 00:56:57;;;;;;;0.80;0.70;;;16.70;61.00;;;;;;5104551;28;20020;-37
2021/11/16 00:59:23;;;;;;;0.80;0.70;;;16.70;61.10;;;;;;5104732;28;20055;-38
2021/11/16 01:01:50;;;;;;;0.85;0.60;;;16.70;61.10;;;;;;5104630;28;20024;-37
2021/11/16 01:04:16;;;;;;;1.90;0.80;;;16.60;61.00;;;;;;5104686;28;20024;-37
2021/11/16 01:06:43;;;;;;;0.93;0.75;;;16.70;61.40;;;;;;5103043;28;20488;-38
2021/11/16 01:09:10;;;;;;;0.77;0.75;;;16.70;61.60;;;;;;5095591;28;20432;-37
2021/11/16 01:11:36;;;;;;;0.80;0.60;;;16.70;61.70;;;;;;5084463;28;20036;-37
2021/11/16 01:14:03;;;;;;;1.95;0.70;;;16.70;61.70;;;;;;5091453;28;20024;-37
2021/11/16 01:16:29;;;;;;;1.00;0.70;;;16.70;61.70;;;;;;5102674;28;20024;-37
2021/11/16 01:18:56;;;;;;;2.22;0.82;;;16.60;61.50;;;;;;5104418;28;20028;-37
2021/11/16 01:21:22;;;;;;;0.65;0.60;;;16.60;61.60;;;;;;5104293;28;20028;-37
2021/11/16 01:23:49;;;;;;;1.17;0.70;;;16.60;61.50;;;;;;5104163;28;20028;-37
2021/11/16 01:26:15;;;;;;;0.98;0.85;;;16.60;61.60;;;;;;5103928;28;20336;-37
2021/11/16 01:28:41;;;;;;;1.20;0.80;;;16.50;61.60;;;;;;5104041;28;20027;-37
2021/11/16 01:31:08;;;;;;;1.00;0.70;;;16.60;62.00;;;;;;5104115;28;20071;-37
2021/11/16 01:33:41;;;;;;;0.88;0.73;;;16.70;62.90;;;;;;5103988;28;20256;-38
2021/11/16 01:36:17;;;;;;;1.30;0.73;;;16.70;62.10;;;;;;5103769;28;20127;-37
2021/11/16 01:38:44;;;;;;;0.75;0.63;;;16.70;62.00;;;;;;5097858;28;20029;-37
2021/11/16 01:41:11;;;;;;;1.77;0.90;;;16.70;62.00;;;;;;5084390;28;20020;-37
2021/11/16 01:43:37;;;;;;;1.05;0.70;;;16.60;61.90;;;;;;5082244;28;20059;-37
2021/11/16 01:46:06;;;;;;;1.38;0.80;;;16.60;61.90;;;;;;5088356;28;20063;-38
2021/11/16 01:48:34;;;;;;;1.02;0.80;;;16.60;61.90;;;;;;5103720;28;20069;-37
2021/11/16 01:51:00;;;;;;;1.20;0.85;;;16.60;61.90;;;;;;5103604;28;20108;-37
2021/11/16 01:53:27;;;;;;;1.15;0.80;;;16.50;62.00;;;;;;5103717;28;20064;-37
2021/11/16 01:55:53;;;;;;;1.50;0.77;;;16.50;61.90;;;;;;5101465;28;20035;-37
2021/11/16 01:58:19;;;;;;;0.90;0.57;;;16.50;62.30;;;;;;5103719;28;20043;-37
2021/11/16 02:00:46;;;;;;;1.08;0.75;;;16.60;62.60;;;;;;5103631;28;20027;-38
2021/11/16 02:03:12;;;;;;;0.90;0.80;;;16.70;62.60;;;;;;5103583;28;20024;-38
2021/11/16 02:05:50;;;;;;;1.23;0.80;;;16.70;62.40;;;;;;5102984;28;20114;-37
2021/11/16 02:08:16;;;;;;;1.27;0.80;;;16.70;62.30;;;;;;5101717;28;20040;-37
2021/11/16 02:10:46;;;;;;;1.35;0.88;;;16.60;62.20;;;;;;5082962;28;20052;-38
2021/11/16 02:13:13;;;;;;;1.00;0.80;;;16.60;62.20;;;;;;5083047;28;20049;-37
2021/11/16 02:15:39;;;;;;;1.13;0.83;;;16.60;62.30;;;;;;5085042;28;20063;-37
2021/11/16 02:18:09;;;;;;;1.15;0.85;;;16.50;62.20;;;;;;5102963;28;20028;-37
2021/11/16 02:20:36;;;;;;;1.23;0.80;;;16.50;62.50;;;;;;5103224;28;20103;-38
2021/11/16 02:23:04;;;;;;;1.08;0.80;;;16.60;62.90;;;;;;5103200;28;20017;-37
2021/11/16 02:25:30;;;;;;;0.63;0.63;;;16.70;62.80;;;;;;5103163;28;20724;-37
2021/11/16 02:27:56;;;;;;;1.00;0.90;;;16.70;62.60;;;;;;5102666;28;20020;-38
2021/11/16 02:30:23;;;;;;;0.90;0.60;;;16.70;62.50;;;;;;5101606;28;20034;-37
2021/11/16 02:32:50;;;;;;;0.98;0.80;;;16.60;62.40;;;;;;5118303;28;20366;-37
2021/11/16 02:35:17;;;;;;;1.37;1.00;;;16.60;62.40;;;;;;5102861;28;20027;-37
2021/11/16 02:37:43;;;;;;;0.95;0.70;;;16.60;62.40;;;;;;5101336;28;20020;-37
2021/11/16 02:40:10;;;;;;;1.02;0.88;;;16.60;62.40;;;;;;5084749;28;20028;-37
2021/11/16 02:42:36;;;;;;;0.80;0.75;;;16.50;62.40;;;;;;5082731;28;20027;-38
2021/11/16 02:45:04;;;;;;;2.40;0.90;;;16.50;62.40;;;;;;5083250;28;20040;-37
2021/11/16 02:47:30;;;;;;;1.13;0.95;;;16.60;62.50;;;;;;5088298;28;20090;-37
2021/11/16 02:49:56;;;;;;;1.00;0.90;;;16.70;62.50;;;;;;5089528;28;20040;-37
2021/11/16 02:52:22;;;;;;;1.77;1.08;;;16.80;62.60;;;;;;5092511;28;20423;-37
2021/11/16 02:54:50;;;;;;;1.13;0.80;;;17.00;62.70;;;;;;5102336;28;20032;-37
2021/11/16 02:57:16;;;;;;;1.55;0.90;;;17.10;63.00;;;;;;5085197;28;20032;-37
2021/11/16 02:59:43;;;;;;;2.15;0.70;;;17.20;63.00;;;;;;5096055;28;20040;-37
2021/11/16 03:02:12;;;;;;;1.65;0.93;;;17.30;63.20;;;;;;5090698;28;20109;-37
2021/11/16 03:04:49;;;;;;;1.30;0.85;;;17.50;63.40;;;;;;5100530;28;20105;-37
2021/11/16 03:07:56;;;;;;;1.45;0.80;;;17.60;63.50;;;;;;5099173;28;20087;-37
2021/11/16 03:10:25;;;;;;;2.20;0.80;;;17.70;63.80;;;;;;5058443;28;20040;-37
2021/11/16 03:12:52;;;;;;;0.60;0.60;;;17.90;64.10;;;;;;5077171;28;20033;-37
2021/11/16 03:15:19;;;;;;;0.82;0.65;;;18.00;64.30;;;;;;5079206;28;20028;-37
2021/11/16 03:17:46;;;;;;;0.90;0.70;;;18.10;64.50;;;;;;5078756;28;20031;-37
2021/11/16 03:20:13;;;;;;;0.88;0.70;;;18.30;64.50;;;;;;5079088;28;20058;-37
2021/11/16 03:22:43;;;;;;;;;;;18.40;64.30;;;;;;5079421;28;20029;-37
2021/11/16 03:25:09;;;;;;;1.23;0.60;;;18.50;64.30;;;;;;5079031;28;19936;-38
2021/11/16 03:27:39;;;;;;;1.08;0.57;;;18.60;64.60;;;;;;5078708;28;20387;-37
2021/11/16 03:30:05;;;;;;;1.63;0.70;;;18.80;64.40;;;;;;5079229;28;20037;-37
2021/11/16 03:32:35;;;;;;;1.02;0.60;;;18.80;64.90;;;;;;5078899;28;20068;-37
2021/11/16 03:35:01;;;;;;;1.05;0.70;;;19.00;64.00;;;;;;5078666;28;20098;-37
2021/11/16 03:37:36;;;;;;;1.03;0.77;;;19.10;64.00;;;;;;5078819;28;20131;-37
2021/11/16 03:40:03;;;;;;;1.10;0.80;;;19.20;63.80;;;;;;5078628;28;20385;-38
2021/11/16 03:42:29;;;;;;;0.80;0.70;;;19.40;63.70;;;;;;5079143;28;20666;-37
2021/11/16 03:44:55;;;;;;;0.95;0.68;;;19.40;63.50;;;;;;5079238;28;20028;-37
2021/11/16 03:47:21;;;;;;;0.70;0.70;;;19.50;63.50;;;;;;5101524;28;20020;-37
2021/11/16 03:49:48;;;;;;;1.10;0.75;;;19.70;63.20;;;;;;5101842;28;20157;-37
2021/11/16 03:52:18;;;;;;;0.60;0.57;;;19.80;63.10;;;;;;5091189;28;20032;-37
2021/11/16 03:54:44;;;;;;;1.27;0.70;;;19.90;62.80;;;;;;5096604;28;20028;-37
2021/11/16 03:57:10;;;;;;;0.82;0.65;;;20.10;62.70;;;;;;5084694;28;20021;-37
2021/11/16 03:59:37;;;;;;;0.55;0.43;;;20.20;62.50;;;;;;5096351;28;20121;-37
2021/11/16 04:02:03;;;;;;;1.10;0.80;;;20.30;62.30;;;;;;5090713;28;20078;-37
2021/11/16 04:04:31;;;;;;;0.90;0.70;;;20.40;62.20;;;;;;5088840;28;20031;-38
2021/11/16 04:06:57;;;;;;;0.90;0.60;;;20.50;61.90;;;;;;5097916;28;20035;-37
2021/11/16 04:09:23;;;;;;;0.68;0.65;;;20.60;61.90;;;;;;5087323;28;20032;-37
2021/11/16 04:11:49;;;;;;;1.45;0.60;;;20.70;61.80;;;;;;5104883;28;20051;-37
2021/11/16 04:14:16;;;;;;;1.17;0.70;;;20.80;60.80;;;;;;5105332;28;20031;-37
2021/11/16 04:16:42;;;;;;;1.83;0.70;;;20.70;60.60;;;;;;5101556;28;20082;-38
2021/11/16 04:19:08;;;;;;;0.88;0.60;;;20.70;60.30;;;;;;5087965;28;20036;-38
2021/11/16 04:21:34;;;;;;;1.27;0.68;;;20.70;60.30;;;;;;5099734;28;20660;-37
2021/11/16 04:24:00;;;;;;;0.95;0.65;;;20.80;60.20;;;;;;5093651;28;20032;-37
2021/11/16 04:26:27;;;;;;;1.45;0.57;;;20.80;60.50;;;;;;5092351;28;20093;-37
2021/11/16 04:28:53;;;;;;;0.80;0.60;;;20.90;60.40;;;;;;5100605;28;20032;-38
2021/11/16 04:31:19;;;;;;;0.70;0.60;;;21.00;60.50;;;;;;5088056;28;20032;-38
2021/11/16 04:33:45;;;;;;;1.50;0.90;;;21.10;60.30;;;;;;5098006;28;20048;-38
2021/11/16 04:36:12;;;;;;;0.90;0.65;;;21.20;59.70;;;;;;5094909;28;20077;-37
2021/11/16 04:38:38;;;;;;;0.80;0.60;;;21.20;59.50;;;;;;5091338;28;20032;-37
2021/11/16 04:41:04;;;;;;;1.60;0.70;;;21.10;59.30;;;;;;5091198;28;20024;-38
2021/11/16 04:43:32;;;;;;;0.88;0.60;;;21.10;59.40;;;;;;5100015;28;20025;-38
2021/11/16 04:46:04;;;;;;;1.48;0.75;;;21.00;59.20;;;;;;5087850;28;20035;-38
2021/11/16 04:48:48;;;;;;;1.10;0.88;;;21.10;59.30;;;;;;5095791;28;20130;-38
2021/11/16 04:51:43;;;;;;;0.90;0.60;;;21.20;59.30;;;;;;5087413;28;20124;-38
2021/11/16 05:04:56;;;;;;;0.60;0.52;;;21.20;58.60;;;;;;5085058;28;20067;-37
2021/11/16 05:07:24;;;;;;;0.98;0.80;;;21.20;58.70;;;;;;5084549;28;20044;-37
2021/11/16 05:09:54;;;;;;;;;;;21.30;58.90;;;;;;5093216;28;20056;-38
2021/11/16 05:12:21;;;;;;;1.20;0.73;;;21.30;58.70;;;;;;5098723;28;19908;-38
2021/11/16 05:14:47;;;;;;;1.48;0.80;;;21.40;59.00;;;;;;5096796;28;20024;-37
2021/11/16 05:17:13;;;;;;;1.10;0.73;;;21.50;58.70;;;;;;5078339;28;20028;-37
2021/11/16 05:19:39;;;;;;;0.98;0.70;;;21.40;58.30;;;;;;5085418;28;20044;-38
2021/11/16 05:22:06;;;;;;;1.08;0.70;;;21.40;58.30;;;;;;5091644;28;20059;-37
2021/11/16 05:24:32;;;;;;;1.02;0.80;;;21.30;58.30;;;;;;5093863;28;20139;-38
2021/11/16 05:26:58;;;;;;;1.35;0.93;;;21.30;58.40;;;;;;5084078;28;20033;-38
2021/11/16 05:29:24;;;;;;;0.80;0.75;;;21.30;58.40;;;;;;5096971;28;20051;-38
2021/11/16 05:31:50;;;;;;;1.38;0.73;;;21.40;58.30;;;;;;5088095;28;20032;-38
2021/11/16 05:34:16;;;;;;;0.90;0.70;;;21.50;58.50;;;;;;5089778;28;20017;-38
2021/11/16 05:36:43;;;;;;;1.08;0.80;;;21.40;58.10;;;;;;5097462;28;20217;-37
2021/11/16 05:39:09;;;;;;;1.10;0.70;;;21.40;58.10;;;;;;5087243;28;20401;-38
2021/11/16 05:41:36;;;;;;;1.38;0.82;;;21.30;58.10;;;;;;5092548;28;20024;-38
2021/11/16 05:44:02;;;;;;;2.47;0.75;;;21.30;58.30;;;;;;5098763;28;20507;-37
2021/11/16 05:46:28;;;;;;;1.15;0.80;;;21.30;58.10;;;;;;5099654;28;20050;-37
2021/11/16 05:48:55;;;;;;;1.35;0.80;;;21.40;58.30;;;;;;5102980;28;20027;-38
2021/11/16 05:51:24;;;;;;;1.40;0.88;;;21.50;58.30;;;;;;5086126;28;20051;-37
2021/11/16 05:53:58;;;;;;;1.23;0.88;;;21.40;57.90;;;;;;5095808;28;20020;-38
2021/11/16 05:56:26;;;;;;;1.05;0.70;;;21.40;57.90;;;;;;5095165;28;20080;-38
2021/11/16 05:58:53;;;;;;;1.10;0.80;;;21.30;58.00;;;;;;5085505;28;20378;-38
2021/11/16 06:01:22;;;;;;;1.20;0.98;;;21.30;58.00;;;;;;5099651;28;20020;-38
2021/11/16 06:03:52;;;;;;;0.75;0.60;;;21.40;58.00;;;;;;5089869;28;20635;-38
2021/11/16 06:06:29;;;;;;;1.70;0.75;;;21.40;58.00;;;;;;5091530;28;20033;-38
2021/11/16 06:08:56;;;;;;;1.27;0.70;;;21.50;57.80;;;;;;5091204;28;20049;-38
2021/11/16 06:11:23;;;;;;;;;;;21.40;57.90;;;;;;5089027;28;20032;-37
2021/11/16 06:13:50;;;;;;;1.08;0.80;;;21.30;57.80;;;;;;5102697;28;19907;-37
2021/11/16 06:16:16;;;;;;;;;;;21.20;57.80;;;;;;5099701;28;20088;-37
2021/11/16 06:18:47;;;;;;;2.00;0.68;;;21.30;57.90;;;;;;5087887;28;19958;-38
2021/11/16 06:21:13;;;;;;;0.75;0.60;;;21.30;58.00;;;;;;5097653;28;20024;-37
2021/11/16 06:23:39;;;;;;;1.05;0.65;;;21.40;58.20;;;;;;5088509;28;20081;-37
2021/11/16 06:26:06;;;;;;;1.75;0.70;;;21.40;57.70;;;;;;5093049;28;20028;-37
2021/11/16 06:28:32;;;;;;;1.73;1.00;;;21.40;57.80;;;;;;5095555;28;20023;-38
2021/11/16 06:30:59;;;;;;;1.00;0.80;;;21.30;57.80;;;;;;5086793;28;20040;-37
2021/11/16 06:33:26;;;;;;;1.20;0.90;;;21.20;57.90;;;;;;5102836;28;20422;-38
2021/11/16 06:35:52;;;;;;;1.98;0.90;;;21.30;57.90;;;;;;5102876;28;20034;-38
2021/11/16 06:38:18;;;;;;;0.93;0.70;;;21.30;57.90;;;;;;5100989;28;20024;-38
2021/11/16 06:40:47;;;;;;;1.10;0.80;;;21.40;58.00;;;;;;5083090;28;20561;-38
2021/11/16 06:43:24;;;;;;;1.45;0.80;;;21.40;57.80;;;;;;5102515;28;20028;-37
2021/11/16 06:45:54;;;;;;;1.03;0.83;;;21.30;57.70;;;;;;5102787;28;20476;-38
2021/11/16 06:48:21;;;;;;;1.20;0.70;;;21.30;57.90;;;;;;5102443;28;20025;-42
2021/11/16 06:50:47;;;;;;;1.52;0.90;;;21.20;57.80;;;;;;5100968;28;20048;-37
2021/11/16 06:53:14;;;;;;;0.80;0.70;;;21.30;57.90;;;;;;5101053;28;20051;-38
2021/11/16 06:55:40;;;;;;;1.10;0.90;;;21.30;58.00;;;;;;5102600;28;20027;-38
2021/11/16 06:58:07;;;;;;;0.70;0.60;;;21.40;58.00;;;;;;5102444;28;20248;-38
2021/11/16 07:00:33;;;;;;;1.05;0.75;;;21.40;57.70;;;;;;5097066;28;20025;-37
2021/11/16 07:03:00;;;;;;;1.27;0.80;;;21.30;57.80;;;;;;5082225;28;20037;-38
2021/11/16 07:05:28;;;;;;;1.23;0.95;;;21.30;57.80;;;;;;5082192;28;20039;-38
2021/11/16 07:07:55;;;;;;;1.52;1.00;;;21.20;57.80;;;;;;5082122;28;20139;-38
2021/11/16 07:10:25;;;;;;;0.98;0.73;;;21.20;57.80;;;;;;5097576;28;20080;-37
2021/11/16 07:12:52;;;;;;;1.25;0.55;;;21.40;57.80;;;;;;5102215;28;20043;-38
2021/11/16 07:15:21;;;;;;;1.50;0.93;;;21.40;57.80;;;;;;5102633;28;20040;-37
2021/11/16 07:17:48;;;;;;;1.38;0.85;;;21.40;57.70;;;;;;5102206;28;20025;-38
2021/11/16 07:20:15;;;;;;;1.00;0.70;;;21.30;57.70;;;;;;5102103;28;20031;-38
2021/11/16 07:22:41;;;;;;;1.13;0.90;;;21.20;57.70;;;;;;5102389;28;20051;-38
2021/11/16 07:25:11;;;;;;;0.95;0.77;;;21.20;57.80;;;;;;5102291;28;20547;-38
2021/11/16 07:27:46;;;;;;;1.58;0.80;;;21.30;57.90;;;;;;5102340;28;20032;-38
2021/11/16 07:30:23;;;;;;;1.40;0.75;;;21.30;57.90;;;;;;5101826;28;20039;-38
2021/11/16 07:32:50;;;;;;;0.52;0.52;;;21.40;57.90;;;;;;5102130;28;20024;-38
2021/11/16 07:35:17;;;;;;;1.10;0.90;;;21.40;57.60;;;;;;5102114;28;20028;-38
2021/11/16 07:37:45;;;;;;;1.35;0.82;;;21.30;57.70;;;;;;5102091;28;20032;-37
2021/11/16 07:40:16;;;;;;;;;;;21.20;57.80;;;;;;5085457;28;20031;-38
2021/11/16 07:43:06;;;;;;;1.45;0.90;;;21.20;57.80;;;;;;5098916;28;19915;-37
2021/11/16 07:45:36;;;;;;;1.40;1.00;;;21.30;57.80;;;;;;5104443;28;20062;-39
2021/11/16 07:48:04;;;;;;;1.08;0.88;;;21.40;57.90;;;;;;5105772;28;20028;-38
2021/11/16 07:50:37;;;;;;;1.08;0.70;;;21.40;57.60;;;;;;5104083;28;20175;-38
2021/11/16 07:53:28;;;;;;;1.00;0.73;;;21.30;57.70;;;;;;5091398;28;20055;-38
2021/11/16 07:55:59;;;;;;;2.15;1.10;;;21.20;57.60;;;;;;5105554;28;20028;-38
2021/11/16 07:58:34;;;;;;;1.48;0.90;;;21.10;57.70;;;;;;5105679;28;20031;-38
2021/11/16 08:01:26;;;;;;;1.30;1.00;;;21.20;57.80;;;;;;5085060;28;20029;-38
2021/11/16 08:03:58;;;;;;;1.65;1.10;;;21.30;57.80;;;;;;5083910;28;20719;-38
2021/11/16 08:06:31;;;;;;;1.38;0.90;;;21.40;57.70;;;;;;5097442;28;20088;-38
2021/11/16 08:09:12;;;;;;;1.42;1.10;;;21.30;57.60;;;;;;5103980;28;20044;-38
2021/11/16 08:11:47;;;;;;;1.20;0.80;;;21.20;57.70;;;;;;5105029;28;20147;-38
2021/11/16 08:14:15;;;;;;;1.20;0.80;;;21.10;57.70;;;;;;5105364;28;20063;-36
2021/11/16 08:16:52;;;;;;;1.23;1.02;;;21.00;57.80;;;;;;5093808;28;20032;-38
2021/11/16 08:19:23;;;;;;;2.05;1.30;;;21.00;57.90;;;;;;5084803;28;20047;-38
2021/11/16 08:21:55;;;;;;;1.80;1.08;;;20.90;57.90;;;;;;5103297;28;20031;-38
2021/11/16 08:24:22;;;;;;;1.48;1.10;;;20.80;58.00;;;;;;5105204;28;20689;-38
2021/11/16 08:26:49;;;;;;;;;;;20.80;58.00;;;;;;5105074;28;20035;-38
2021/11/16 08:29:17;;;;;;;1.50;1.00;;;20.80;58.00;;;;;;5105108;28;19908;-38
2021/11/16 08:31:49;;;;;;;1.30;1.10;;;20.90;58.00;;;;;;5094969;28;20046;-38
2021/11/16 08:34:15;;;;;;;1.65;1.10;;;20.80;57.90;;;;;;5080501;28;20021;-37
2021/11/16 08:36:50;;;;;;;1.47;0.90;;;20.80;57.90;;;;;;5089160;28;20036;-38
2021/11/16 08:39:17;;;;;;;2.25;1.08;;;20.70;57.90;;;;;;5096067;28;20051;-38
2021/11/16 08:41:44;;;;;;;1.60;1.00;;;20.70;58.50;;;;;;5094244;28;20052;-37
2021/11/16 08:44:21;;;;;;;2.97;1.25;;;20.60;58.00;;;;;;5098420;28;20043;-38
2021/11/16 08:46:50;;;;;;;1.55;0.90;;;20.60;58.10;;;;;;5093888;28;20538;-38
2021/11/16 08:49:31;;;;;;;1.65;1.20;;;20.70;58.00;;;;;;5095201;28;20044;-37
2021/11/16 08:52:00;;;;;;;1.60;1.02;;;20.80;57.90;;;;;;5100052;28;20115;-38
2021/11/16 08:54:31;;;;;;;1.38;1.10;;;20.70;57.90;;;;;;5096386;28;20052;-38
2021/11/16 08:57:00;;;;;;;1.50;1.10;;;20.60;58.00;;;;;;5090279;28;20024;-38
2021/11/16 08:59:26;;;;;;;2.40;1.20;;;20.60;58.10;;;;;;5091285;28;20094;-38
2021/11/16 09:01:56;;;;;;;2.25;1.20;;;20.50;58.20;;;;;;5093418;28;20024;-38
2021/11/16 09:04:27;;;;;;;2.03;1.23;;;20.60;58.20;;;;;;5088606;28;20767;-37
2021/11/16 09:06:54;;;;;;;1.42;1.15;;;20.60;58.20;;;;;;5095857;28;20024;-38
2021/11/16 09:09:20;;;;;;;1.98;1.08;;;20.70;58.00;;;;;;5075666;28;20024;-38
2021/11/16 09:12:04;;;;;;;1.57;1.10;;;20.70;58.00;;;;;;5096241;28;20024;-39
2021/11/16 09:14:30;;;;;;;1.73;1.27;;;20.60;58.00;;;;;;5086734;28;20047;-37
2021/11/16 09:16:57;;;;;;;3.70;1.13;;;20.50;58.10;;;;;;5085328;28;20032;-37
2021/11/16 09:19:31;;;;;;;1.42;0.98;;;20.40;58.10;;;;;;5091509;28;20051;-38
2021/11/16 09:21:57;;;;;;;1.60;1.20;;;20.50;58.20;;;;;;5096273;28;20024;-38
2021/11/16 09:24:31;;;;;;;2.05;1.20;;;20.60;58.20;;;;;;5097803;28;20027;-38
2021/11/16 09:27:45;;;;;;;2.65;1.40;;;20.60;58.00;;;;;;5097535;28;20030;-37
2021/11/16 09:29:48;;;;;;;1.88;1.40;;;20.60;58.10;;;;;;5093136;28;20048;-38
2021/11/16 09:32:14;;;;;;;3.30;1.50;;;20.50;58.10;;;;;;5088911;28;20055;-37
2021/11/16 09:34:42;;;;;;;1.65;1.25;;;20.40;58.20;;;;;;5089078;28;20028;-37
2021/11/16 09:37:15;;;;;;;1.73;1.10;;;20.50;58.30;;;;;;5097396;28;20032;-38
2021/11/16 09:39:45;;;;;;;2.25;1.20;;;20.60;58.30;;;;;;5087606;28;20039;-38
2021/11/16 09:42:16;;;;;;;1.42;1.02;;;20.60;58.10;;;;;;5088801;28;20025;-38
2021/11/16 09:44:44;;;;;;;2.15;1.33;;;20.50;58.10;;;;;;5087931;28;20029;-38
2021/11/16 09:47:17;;;;;;;2.55;1.38;;;20.40;58.10;;;;;;5091936;28;20028;-38
2021/11/16 09:49:44;;;;;;;1.77;1.38;;;20.30;58.20;;;;;;5089938;28;20050;-38
2021/11/16 09:52:11;;;;;;;2.45;1.27;;;20.40;58.30;;;;;;5086484;28;20035;-38
2021/11/16 09:54:56;;;;;;;2.78;1.50;;;20.50;58.30;;;;;;5089202;28;20034;-38
2021/11/16 09:57:44;;;;;;;2.47;1.40;;;20.60;58.30;;;;;;5086034;28;20021;-38
2021/11/16 10:00:13;;;;;;;2.53;1.40;;;20.50;58.20;;;;;;5093402;28;20516;-38
2021/11/16 10:02:48;;;;;;;2.03;1.20;;;20.40;58.20;;;;;;5096311;28;20143;-37
2021/11/16 10:05:19;;;;;;;2.47;1.40;;;20.40;58.30;;;;;;5093026;28;20032;-37
2021/11/16 10:07:46;;;;;;;2.58;1.30;;;20.40;58.40;;;;;;5089629;28;20595;-37
2021/11/16 10:10:12;;;;;;;2.25;1.50;;;20.40;58.30;;;;;;5088549;28;20033;-37
2021/11/16 10:12:40;;;;;;;2.38;1.63;;;20.50;58.40;;;;;;5090370;28;20028;-37
2021/11/16 10:15:07;;;;;;;2.20;1.30;;;20.60;58.20;;;;;;5090819;28;20073;-38
2021/11/16 10:17:33;;;;;;;1.67;1.27;;;20.50;58.20;;;;;;5090322;28;20080;-37
2021/11/16 10:19:59;;;;;;;2.22;1.52;;;20.40;58.30;;;;;;5097148;28;20070;-37
2021/11/16 10:22:28;;;;;;;1.70;1.55;;;20.40;58.30;;;;;;5093272;28;20034;-37
2021/11/16 10:25:15;;;;;;;2.33;1.20;;;20.40;58.40;;;;;;5091620;28;20036;-38
2021/11/16 10:27:41;;;;;;;1.80;1.25;;;20.50;58.40;;;;;;5085429;28;20028;-38
2021/11/16 10:30:27;;;;;;;1.43;0.97;;;20.60;58.40;;;;;;5093973;28;20036;-38
2021/11/16 10:33:19;;;;;;;2.00;1.50;;;20.50;58.20;;;;;;5093041;28;20020;-37
2021/11/16 10:35:56;;;;;;;2.10;1.42;;;20.50;58.30;;;;;;5093571;28;20025;-37
2021/11/16 10:38:45;;;;;;;1.42;1.17;;;20.40;58.90;;;;;;5096011;28;20515;-38
2021/11/16 10:41:22;;;;;;;2.22;1.10;;;20.40;58.40;;;;;;5101797;28;20107;-38
2021/11/16 10:44:03;;;;;;;2.42;1.50;;;20.50;58.50;;;;;;5092649;28;20734;-38
2021/11/16 10:46:35;;;;;;;2.30;1.25;;;20.60;58.50;;;;;;5096368;28;20024;-38
2021/11/16 10:49:05;;;;;;;2.20;1.45;;;20.50;58.30;;;;;;5102321;28;20028;-38
2021/11/16 10:51:32;;;;;;;2.00;1.30;;;20.50;58.40;;;;;;5102438;28;20032;-38
2021/11/16 10:53:59;;;;;;;;;;;20.40;58.40;;;;;;5101414;28;20036;-38
2021/11/16 10:56:30;;;;;;;1.52;1.30;;;20.40;58.50;;;;;;5102493;28;19915;-38
2021/11/16 10:59:06;;;;;;;1.88;1.35;;;20.40;58.50;;;;;;5102188;28;20016;-37
2021/11/16 11:01:32;;;;;;;1.85;1.30;;;20.50;58.60;;;;;;5102239;28;20039;-37
2021/11/16 11:03:58;;;;;;;1.50;1.17;;;20.60;58.40;;;;;;5100748;28;20024;-38
2021/11/16 11:06:32;;;;;;;1.63;1.20;;;20.50;58.40;;;;;;5088302;28;20037;-37
2021/11/16 11:09:06;;;;;;;1.75;1.33;;;20.50;58.50;;;;;;5100168;28;20493;-38
2021/11/16 11:11:33;;;;;;;1.52;1.30;;;20.40;58.50;;;;;;5102163;28;20032;-37
2021/11/16 11:14:04;;;;;;;2.00;1.30;;;20.40;58.60;;;;;;5102318;28;20049;-38
2021/11/16 11:16:43;;;;;;;1.45;1.10;;;20.50;58.60;;;;;;5097070;28;20032;-38
2021/11/16 11:19:12;;;;;;;2.67;1.35;;;20.50;58.50;;;;;;5088003;28;20353;-37
2021/11/16 11:21:44;;;;;;;1.85;1.20;;;20.60;58.40;;;;;;5104978;28;20024;-39
2021/11/16 11:24:19;;;;;;;2.53;1.60;;;20.50;58.50;;;;;;5094402;28;20058;-37
2021/11/16 11:26:53;;;;;;;2.05;1.25;;;20.40;58.50;;;;;;5101483;28;20024;-38
2021/11/16 11:29:28;;;;;;;2.13;1.13;;;20.40;58.60;;;;;;5085943;28;20035;-38
2021/11/16 11:32:27;;;;;;;2.17;1.50;;;20.40;58.60;;;;;;5086135;28;20055;-38
2021/11/16 11:35:01;;;;;;;2.08;1.40;;;20.50;58.70;;;;;;5088147;28;20051;-38
2021/11/16 11:37:29;;;;;;;2.15;1.35;;;20.60;58.50;;;;;;5106281;28;20063;-37
2021/11/16 11:40:08;;;;;;;1.80;1.15;;;20.50;58.50;;;;;;5089023;28;20085;-38
2021/11/16 11:42:44;;;;;;;1.88;1.33;;;20.50;58.60;;;;;;5085911;28;20029;-37
2021/11/16 11:45:20;;;;;;;3.20;1.35;;;20.40;58.60;;;;;;5085850;28;20093;-38
2021/11/16 11:47:50;;;;;;;1.75;1.30;;;20.40;58.70;;;;;;5105819;28;20019;-37
2021/11/16 11:50:39;;;;;;;2.25;1.20;;;20.50;58.70;;;;;;5102662;28;20036;-37
2021/11/16 11:53:07;;;;;;;1.83;1.23;;;20.60;58.60;;;;;;5105801;28;20025;-37
2021/11/16 11:55:36;;;;;;;3.35;1.45;;;20.60;59.10;;;;;;5104465;28;20017;-37
2021/11/16 11:58:02;;;;;;;1.50;1.15;;;20.50;58.50;;;;;;5105780;28;20024;-38
2021/11/16 12:00:29;;;;;;;2.30;1.40;;;20.40;58.50;;;;;;5105859;28;20532;-38
2021/11/16 12:02:55;;;;;;;1.73;1.13;;;20.40;58.60;;;;;;5087174;28;20863;-37
2021/11/16 12:05:24;;;;;;;2.28;1.45;;;20.50;58.60;;;;;;5098925;28;20063;-37
2021/11/16 12:07:52;;;;;;;1.98;1.13;;;20.60;58.70;;;;;;5094449;28;20036;-38
2021/11/16 12:10:19;;;;;;;2.17;1.40;;;20.60;58.50;;;;;;5099410;28;20044;-38
2021/11/16 12:12:45;;;;;;;2.03;1.13;;;20.50;58.50;;;;;;5096182;28;20039;-38
2021/11/16 12:15:20;;;;;;;1.27;1.08;;;20.40;58.50;;;;;;5101669;28;20100;-37
2021/11/16 12:17:51;;;;;;;2.17;1.20;;;20.40;58.60;;;;;;5096492;28;20027;-38
2021/11/16 12:20:36;;;;;;;1.92;1.08;;;20.50;58.70;;;;;;5096787;28;20107;-38
2021/11/16 12:23:07;;;;;;;2.25;1.45;;;20.60;58.60;;;;;;5086967;28;20664;-38
2021/11/16 12:25:33;;;;;;;2.15;1.20;;;20.60;58.50;;;;;;5098437;28;20027;-38
2021/11/16 12:28:00;;;;;;;1.70;1.23;;;20.60;58.50;;;;;;5085077;28;20031;-38
2021/11/16 12:30:44;;;;;;;1.20;1.02;;;20.50;58.50;;;;;;5083217;28;20097;-37
2021/11/16 12:33:10;;;;;;;1.40;1.10;;;20.40;58.60;;;;;;5084558;28;20024;-38
2021/11/16 12:35:44;;;;;;;2.20;1.60;;;20.50;58.70;;;;;;5095870;28;20032;-38
2021/11/16 12:38:14;;;;;;;1.52;1.23;;;20.60;58.70;;;;;;5102433;28;20024;-37
2021/11/16 12:40:41;;;;;;;2.20;1.27;;;20.60;59.10;;;;;;5104774;28;20028;-38
2021/11/16 12:43:08;;;;;;;1.83;1.10;;;20.60;58.50;;;;;;5084870;28;20103;-37
2021/11/16 12:45:48;;;;;;;1.17;1.07;;;20.50;58.50;;;;;;5086234;28;20044;-37
2021/11/16 12:48:15;;;;;;;1.52;1.20;;;20.40;58.50;;;;;;5105106;28;20103;-38
2021/11/16 12:51:10;;;;;;;1.80;1.10;;;20.50;58.60;;;;;;5104645;28;20040;-37
2021/11/16 12:53:54;;;;;;;2.78;1.38;;;20.60;58.70;;;;;;5104678;28;20024;-37
2021/11/16 12:56:21;;;;;;;1.65;1.30;;;20.60;58.50;;;;;;5104528;28;20028;-38
2021/11/16 12:58:52;;;;;;;2.33;1.25;;;20.60;58.50;;;;;;5104425;28;20024;-37
2021/11/16 13:01:41;;;;;;;2.40;1.40;;;20.50;58.50;;;;;;5089406;28;20031;-37
2021/11/16 13:04:08;;;;;;;1.77;1.02;;;20.40;58.60;;;;;;5093963;28;20032;-38
2021/11/16 13:06:35;;;;;;;1.48;1.33;;;20.50;58.70;;;;;;5104411;28;20023;-37
2021/11/16 13:09:02;;;;;;;;;;;20.50;58.60;;;;;;5098887;28;20052;-38
2021/11/16 13:11:41;;;;;;;1.67;1.05;;;20.60;58.60;;;;;;5104268;28;19916;-38
2021/11/16 13:14:09;;;;;;;1.40;1.27;;;20.60;58.40;;;;;;5104122;28;20055;-39